createdAt,value
2019-05-07T00:02:02.727Z,3.43
2019-05-07T00:04:07.234Z,3.07
2019-05-07T00:06:12.375Z,2.47
2019-05-07T00:08:16.512Z,3.27
2019-05-07T00:10:21.799Z,3.90
2019-05-07T00:12:25.956Z,2.87
2019-05-07T00:14:29.855Z,3.50
2019-05-07T00:16:33.728Z,3.33
2019-05-07T00:18:37.585Z,3.33
2019-05-07T00:20:43.064Z,3.87
2019-05-07T00:22:47.369Z,3.50
2019-05-07T00:24:52.135Z,3.33
2019-05-07T00:26:56.312Z,3.40
2019-05-07T00:29:02.272Z,2.83
2019-05-07T00:31:06.661Z,3.60
2019-05-07T00:33:13.177Z,3.40
2019-05-07T00:35:22.556Z,3.27
2019-05-07T00:37:32.257Z,3.90
2019-05-07T00:39:42.305Z,3.53
2019-05-07T00:41:48.290Z,3.30
2019-05-07T00:43:53.743Z,3.43
2019-05-07T00:45:59.223Z,3.47
2019-05-07T00:48:04.849Z,3.47
2019-05-07T00:50:13.303Z,3.20
2019-05-07T00:52:19.251Z,3.50
2019-05-07T00:54:23.219Z,3.30
2019-05-07T00:56:27.126Z,3.70
2019-05-07T00:58:32.086Z,3.53
2019-05-07T01:00:36.172Z,3.30
2019-05-07T01:02:40.047Z,3.20
2019-05-07T01:04:46.761Z,3.10
2019-05-07T01:06:52.992Z,3.00
2019-05-07T01:08:57.615Z,3.10
2019-05-07T01:11:02.295Z,2.70
2019-05-07T01:13:06.429Z,3.07
2019-05-07T01:15:12.667Z,3.27
2019-05-07T01:17:15.943Z,3.23
2019-05-07T01:19:21.817Z,3.73
2019-05-07T01:21:26.397Z,3.23
2019-05-07T01:23:32.119Z,3.70
2019-05-07T01:25:35.825Z,3.50
2019-05-07T01:27:39.701Z,4.13
2019-05-07T01:29:45.349Z,3.40
2019-05-07T01:31:55.461Z,4.10
2019-05-07T01:34:07.817Z,3.50
2019-05-07T01:36:16.204Z,3.50
2019-05-07T01:38:20.120Z,3.33
2019-05-07T01:40:23.984Z,3.23
2019-05-07T01:42:27.875Z,3.73
2019-05-07T01:44:32.567Z,2.83
2019-05-07T01:46:43.717Z,3.23
2019-05-07T01:48:48.020Z,3.93
2019-05-07T01:50:52.527Z,3.77
2019-05-07T01:52:56.759Z,3.77
2019-05-07T01:55:02.985Z,4.20
2019-05-07T01:57:06.202Z,3.23
2019-05-07T01:59:12.059Z,3.73
2019-05-07T02:01:15.958Z,3.67
2019-05-07T02:03:32.620Z,4.73
2019-05-07T02:05:42.286Z,4.10
2019-05-07T02:07:47.230Z,3.87
2019-05-07T02:10:02.804Z,3.83
2019-05-07T02:12:08.363Z,3.87
2019-05-07T02:14:13.655Z,4.30
2019-05-07T02:16:17.899Z,3.60
2019-05-07T02:18:21.876Z,4.30
2019-05-07T02:20:26.014Z,3.53
2019-05-07T02:22:31.855Z,3.53
2019-05-07T02:24:35.766Z,4.30
2019-05-07T02:26:39.980Z,3.93
2019-05-07T02:28:43.985Z,4.00
2019-05-07T02:30:48.091Z,3.23
2019-05-07T02:32:54.011Z,3.20
2019-05-07T02:34:57.639Z,3.50
2019-05-07T02:37:03.986Z,3.70
2019-05-07T02:39:19.167Z,3.50
2019-05-07T02:41:24.929Z,4.07
2019-05-07T02:43:29.071Z,3.63
2019-05-07T02:45:53.580Z,4.20
2019-05-07T02:47:57.454Z,3.23
2019-05-07T02:50:03.465Z,4.50
2019-05-07T02:52:15.054Z,3.83
2019-05-07T02:54:26.988Z,3.70
2019-05-07T02:56:33.312Z,4.27
2019-05-07T02:58:37.162Z,3.57
2019-05-07T03:00:43.465Z,3.27
2019-05-07T03:02:47.722Z,3.80
2019-05-07T03:04:53.257Z,4.00
2019-05-07T03:06:57.750Z,4.90
2019-05-07T03:09:03.213Z,3.37
2019-05-07T03:11:07.392Z,3.70
2019-05-07T03:13:13.719Z,3.37
2019-05-07T03:15:17.144Z,3.50
2019-05-07T03:17:24.232Z,4.20
2019-05-07T03:19:27.301Z,4.10
2019-05-07T03:21:49.261Z,4.50
2019-05-07T03:24:03.409Z,3.70
2019-05-07T03:26:13.592Z,4.50
2019-05-07T03:28:16.932Z,3.80
2019-05-07T03:30:25.986Z,3.30
2019-05-07T03:32:39.347Z,4.43
2019-05-07T03:34:47.050Z,4.03
2019-05-07T03:36:56.669Z,3.77
2019-05-07T03:38:58.105Z,4.03
2019-05-07T03:41:03.693Z,3.97
2019-05-07T03:43:07.505Z,4.30
2019-05-07T03:45:29.796Z,4.37
2019-05-07T03:47:38.134Z,4.07
2019-05-07T03:49:42.956Z,3.63
2019-05-07T03:51:47.173Z,4.13
2019-05-07T03:53:53.426Z,4.03
2019-05-07T03:55:56.708Z,4.03
2019-05-07T03:58:03.228Z,4.13
2019-05-07T04:00:08.519Z,5.13
2019-05-07T04:02:14.206Z,4.13
2019-05-07T04:04:17.968Z,4.20
2019-05-07T04:06:23.401Z,4.60
2019-05-07T04:08:27.609Z,4.60
2019-05-07T04:10:33.864Z,4.73
2019-05-07T04:12:37.261Z,4.33
2019-05-07T04:14:43.207Z,3.93
2019-05-07T04:16:46.814Z,3.90
2019-05-07T04:18:53.104Z,4.50
2019-05-07T04:20:56.470Z,4.87
2019-05-07T04:23:03.985Z,4.10
2019-05-07T04:25:25.078Z,4.70
2019-05-07T04:27:44.175Z,4.83
2019-05-07T04:29:45.076Z,3.53
2019-05-07T04:31:49.164Z,3.83
2019-05-07T04:33:53.534Z,4.50
2019-05-07T04:36:02.830Z,4.23
2019-05-07T04:38:07.297Z,4.77
2019-05-07T04:40:13.518Z,4.23
2019-05-07T04:42:17.693Z,4.10
2019-05-07T04:44:23.531Z,3.87
2019-05-07T04:46:27.343Z,4.60
2019-05-07T04:48:33.766Z,4.77
2019-05-07T04:50:43.608Z,4.00
2019-05-07T04:52:44.180Z,5.57
2019-05-07T04:54:48.184Z,4.50
2019-05-07T04:56:53.167Z,4.67
2019-05-07T04:58:57.424Z,3.77
2019-05-07T05:01:03.217Z,4.30
2019-05-07T05:03:08.611Z,4.07
2019-05-07T05:05:13.552Z,3.60
2019-05-07T05:07:17.650Z,3.97
2019-05-07T05:09:23.327Z,3.30
2019-05-07T05:11:27.568Z,4.00
2019-05-07T05:13:33.458Z,4.20
2019-05-07T05:15:37.895Z,4.13
2019-05-07T05:17:50.134Z,4.40
2019-05-07T05:19:48.341Z,4.47
2019-05-07T05:21:54.041Z,4.57
2019-05-07T05:24:02.087Z,4.33
2019-05-07T05:26:06.399Z,4.40
2019-05-07T05:28:12.422Z,3.43
2019-05-07T05:30:18.373Z,3.97
2019-05-07T05:32:22.757Z,4.77
2019-05-07T05:34:27.135Z,4.17
2019-05-07T05:36:33.042Z,5.87
2019-05-07T05:38:36.795Z,4.77
2019-05-07T05:40:42.683Z,4.60
2019-05-07T05:42:52.480Z,4.63
2019-05-07T05:44:56.694Z,4.30
2019-05-07T05:47:02.393Z,4.57
2019-05-07T05:49:06.547Z,4.00
2019-05-07T05:51:22.776Z,4.37
2019-05-07T05:53:34.209Z,4.30
2019-05-07T05:55:38.424Z,4.17
2019-05-07T05:57:43.861Z,4.50
2019-05-07T05:59:54.465Z,4.60
2019-05-07T06:02:12.879Z,4.30
2019-05-07T06:04:18.523Z,3.47
2019-05-07T06:06:42.361Z,3.90
2019-05-07T06:08:52.517Z,3.60
2019-05-07T06:11:02.285Z,4.67
2019-05-07T06:13:12.398Z,4.33
2019-05-07T06:15:22.223Z,3.87
2019-05-07T06:17:42.975Z,3.70
2019-05-07T06:19:51.857Z,3.53
2019-05-07T06:22:03.683Z,4.30
2019-05-07T06:24:09.328Z,3.50
2019-05-07T06:26:13.543Z,3.77
2019-05-07T06:28:17.442Z,3.17
2019-05-07T06:30:22.701Z,4.73
2019-05-07T06:32:26.808Z,2.63
2019-05-07T06:34:31.619Z,3.17
2019-05-07T06:36:37.362Z,3.70
2019-05-07T06:38:43.004Z,3.63
2019-05-07T06:40:54.693Z,3.40
2019-05-07T06:43:15.592Z,3.20
2019-05-07T06:45:22.745Z,3.77
2019-05-07T06:47:27.089Z,3.40
2019-05-07T06:49:32.406Z,3.63
2019-05-07T06:51:36.629Z,4.10
2019-05-07T06:53:42.223Z,3.47
2019-05-07T06:55:46.391Z,3.63
2019-05-07T06:57:50.402Z,2.80
2019-05-07T07:00:12.209Z,2.07
2019-05-07T07:02:34.356Z,3.43
2019-05-07T07:04:42.250Z,2.63
2019-05-07T07:06:52.350Z,2.10
2019-05-07T07:09:14.222Z,2.50
2019-05-07T07:11:22.834Z,2.73
2019-05-07T07:13:27.975Z,2.77
2019-05-07T07:15:32.204Z,2.77
2019-05-07T07:17:36.228Z,2.60
2019-05-07T07:19:42.652Z,2.40
2019-05-07T07:21:45.840Z,3.07
2019-05-07T07:23:49.842Z,2.30
2019-05-07T07:25:53.849Z,2.23
2019-05-07T07:27:57.956Z,2.10
2019-05-07T07:30:03.516Z,2.00
2019-05-07T07:32:09.246Z,1.83
2019-05-07T07:34:13.560Z,2.40
2019-05-07T07:36:17.977Z,2.30
2019-05-07T07:38:34.576Z,1.83
2019-05-07T07:40:43.500Z,2.63
2019-05-07T07:42:47.492Z,1.90
2019-05-07T07:44:53.148Z,2.17
2019-05-07T07:46:57.257Z,1.50
2019-05-07T07:49:07.876Z,2.20
2019-05-07T07:51:06.806Z,1.70
2019-05-07T07:53:12.763Z,1.70
2019-05-07T07:55:17.994Z,2.37
2019-05-07T07:57:39.924Z,1.70
2019-05-07T07:59:48.533Z,1.77
2019-05-07T08:01:57.151Z,1.80
2019-05-07T08:04:02.855Z,2.03
2019-05-07T08:06:06.799Z,2.00
2019-05-07T08:08:12.674Z,1.40
2019-05-07T08:10:16.968Z,1.70
2019-05-07T08:12:22.101Z,1.70
2019-05-07T08:14:26.412Z,1.90
2019-05-07T08:16:32.611Z,2.17
2019-05-07T08:18:35.940Z,2.20
2019-05-07T08:20:39.778Z,1.40
2019-05-07T08:22:43.639Z,1.93
2019-05-07T08:24:47.556Z,1.63
2019-05-07T08:26:51.911Z,1.70
2019-05-07T08:28:55.871Z,1.40
2019-05-07T08:31:07.482Z,1.50
2019-05-07T08:33:14.774Z,1.40
2019-05-07T08:35:38.020Z,1.50
2019-05-07T08:37:42.701Z,1.50
2019-05-07T08:39:46.792Z,1.67
2019-05-07T08:41:52.647Z,1.70
2019-05-07T08:44:10.670Z,1.90
2019-05-07T08:46:22.782Z,1.47
2019-05-07T08:48:34.328Z,2.30
2019-05-07T08:50:38.192Z,2.13
2019-05-07T08:52:42.130Z,1.63
2019-05-07T08:54:45.972Z,1.63
2019-05-07T08:56:52.674Z,1.50
2019-05-07T08:58:56.260Z,1.60
2019-05-07T09:01:00.126Z,1.70
2019-05-07T09:03:04.024Z,1.30
2019-05-07T09:05:09.342Z,1.00
2019-05-07T09:07:13.317Z,1.60
2019-05-07T09:09:17.202Z,1.43
2019-05-07T09:11:22.937Z,1.50
2019-05-07T09:13:26.885Z,1.40
2019-05-07T09:15:32.009Z,1.57
2019-05-07T09:17:36.441Z,1.47
2019-05-07T09:19:48.313Z,1.60
2019-05-07T09:21:46.083Z,2.27
2019-05-07T09:23:52.236Z,1.47
2019-05-07T09:25:55.836Z,1.77
2019-05-07T09:27:59.841Z,1.50
2019-05-07T09:30:22.109Z,1.30
2019-05-07T09:32:28.034Z,1.93
2019-05-07T09:34:33.671Z,1.70
2019-05-07T09:36:42.443Z,1.50
2019-05-07T09:38:56.772Z,1.70
2019-05-07T09:40:52.541Z,1.57
2019-05-07T09:42:56.762Z,1.20
2019-05-07T09:45:01.956Z,1.63
2019-05-07T09:47:06.207Z,1.20
2019-05-07T09:49:11.914Z,1.40
2019-05-07T09:51:15.757Z,1.20
2019-05-07T09:53:19.877Z,1.67
2019-05-07T09:55:24.081Z,1.40
2019-05-07T09:57:31.333Z,1.30
2019-05-07T09:59:33.730Z,1.53
2019-05-07T10:01:37.841Z,1.23
2019-05-07T10:03:42.964Z,1.30
2019-05-07T10:05:47.178Z,1.20
2019-05-07T10:07:52.614Z,1.40
2019-05-07T10:09:56.716Z,1.60
2019-05-07T10:12:05.137Z,1.67
2019-05-07T10:14:12.481Z,1.20
2019-05-07T10:16:18.271Z,1.63
2019-05-07T10:18:22.845Z,1.20
2019-05-07T10:20:27.411Z,1.33
2019-05-07T10:22:32.173Z,1.20
2019-05-07T10:24:36.556Z,1.57
2019-05-07T10:26:42.709Z,1.30
2019-05-07T10:28:46.302Z,2.03
2019-05-07T10:30:52.081Z,1.40
2019-05-07T10:32:56.158Z,1.47
2019-05-07T10:35:02.154Z,1.67
2019-05-07T10:37:05.605Z,1.67
2019-05-07T10:39:09.807Z,1.63
2019-05-07T10:41:13.923Z,1.83
2019-05-07T10:43:18.138Z,1.53
2019-05-07T10:45:42.029Z,1.70
2019-05-07T10:47:53.487Z,1.60
2019-05-07T10:50:15.619Z,1.70
2019-05-07T10:52:19.624Z,1.27
2019-05-07T10:54:23.839Z,1.60
2019-05-07T10:56:27.944Z,1.67
2019-05-07T10:58:32.180Z,1.40
2019-05-07T11:00:36.469Z,1.60
2019-05-07T11:02:42.457Z,1.40
2019-05-07T11:04:46.127Z,1.77
2019-05-07T11:06:52.162Z,1.70
2019-05-07T11:08:55.671Z,1.77
2019-05-07T11:10:59.674Z,1.80
2019-05-07T11:13:03.683Z,1.83
2019-05-07T11:15:08.360Z,2.13
2019-05-07T11:17:32.521Z,1.80
2019-05-07T11:19:35.875Z,1.80
2019-05-07T11:21:41.760Z,1.50
2019-05-07T11:23:45.526Z,2.00
2019-05-07T11:25:49.632Z,1.90
2019-05-07T11:27:53.744Z,1.77
2019-05-07T11:29:57.746Z,2.13
2019-05-07T11:32:01.967Z,1.83
2019-05-07T11:34:05.861Z,2.10
2019-05-07T11:36:10.292Z,1.47
2019-05-07T11:38:21.099Z,2.07
2019-05-07T11:40:20.153Z,2.37
2019-05-07T11:42:25.983Z,2.20
2019-05-07T11:44:32.116Z,1.87
2019-05-07T11:46:44.419Z,1.63
2019-05-07T11:48:50.180Z,1.80
2019-05-07T11:51:03.260Z,2.33
2019-05-07T11:53:05.663Z,1.97
2019-05-07T11:55:12.076Z,1.90
2019-05-07T11:57:16.247Z,1.97
2019-05-07T11:59:21.906Z,2.03
2019-05-07T12:01:25.773Z,1.40
2019-05-07T12:03:29.665Z,2.13
2019-05-07T12:05:33.815Z,1.63
2019-05-07T12:07:37.920Z,2.30
2019-05-07T12:09:42.025Z,2.07
2019-05-07T12:11:46.036Z,2.23
2019-05-07T12:13:50.038Z,2.03
2019-05-07T12:15:54.250Z,2.10
2019-05-07T12:17:58.258Z,2.67
2019-05-07T12:20:02.487Z,1.93
2019-05-07T12:22:07.019Z,2.40
2019-05-07T12:24:12.862Z,2.00
2019-05-07T12:26:16.737Z,2.23
2019-05-07T12:28:22.489Z,2.17
2019-05-07T12:30:42.802Z,2.33
2019-05-07T12:33:05.110Z,2.27
2019-05-07T12:35:12.625Z,1.80
2019-05-07T12:37:16.500Z,1.97
2019-05-07T12:39:21.919Z,2.57
2019-05-07T12:41:34.164Z,2.40
2019-05-07T12:43:38.558Z,2.20
2019-05-07T12:45:42.772Z,1.67
2019-05-07T12:47:46.772Z,1.70
2019-05-07T12:49:50.884Z,1.80
2019-05-07T12:51:56.526Z,2.13
2019-05-07T12:54:05.142Z,2.30
2019-05-07T12:56:09.258Z,2.73
2019-05-07T12:58:13.152Z,2.70
2019-05-07T13:00:36.300Z,1.93
2019-05-07T13:02:44.174Z,1.30
2019-05-07T13:04:47.492Z,2.27
2019-05-07T13:06:58.876Z,1.70
2019-05-07T13:09:02.980Z,2.40
2019-05-07T13:11:07.300Z,2.63
2019-05-07T13:13:12.346Z,1.93
2019-05-07T13:15:24.993Z,1.90
2019-05-07T13:17:22.524Z,2.83
2019-05-07T13:19:26.807Z,2.17
2019-05-07T13:21:31.950Z,1.73
2019-05-07T13:23:36.556Z,1.57
2019-05-07T13:25:42.761Z,3.10
2019-05-07T13:27:46.319Z,2.50
2019-05-07T13:29:52.952Z,2.20
2019-05-07T13:31:57.212Z,1.77
2019-05-07T13:34:03.040Z,2.60
2019-05-07T13:36:07.456Z,2.20
2019-05-07T13:38:14.546Z,2.07
2019-05-07T13:40:26.720Z,2.20
2019-05-07T13:42:32.374Z,2.60
2019-05-07T13:44:44.063Z,1.90
2019-05-07T13:46:49.473Z,1.53
2019-05-07T13:48:54.325Z,2.40
2019-05-07T13:50:58.628Z,2.30
2019-05-07T13:53:02.642Z,1.77
2019-05-07T13:55:08.076Z,2.27
2019-05-07T13:57:12.295Z,1.90
2019-05-07T13:59:16.307Z,2.30
2019-05-07T14:01:22.982Z,2.90
2019-05-07T14:03:27.381Z,2.50
2019-05-07T14:05:32.370Z,2.30
2019-05-07T14:07:38.166Z,1.83
2019-05-07T14:09:42.282Z,2.10
2019-05-07T14:11:46.382Z,2.00
2019-05-07T14:13:52.237Z,2.37
2019-05-07T14:16:06.989Z,2.27
2019-05-07T14:18:11.593Z,2.00
2019-05-07T14:20:16.395Z,2.70
2019-05-07T14:22:22.305Z,1.90
2019-05-07T14:24:26.090Z,2.40
2019-05-07T14:26:32.445Z,2.27
2019-05-07T14:28:35.739Z,2.03
2019-05-07T14:30:41.981Z,2.00
2019-05-07T14:32:52.764Z,2.13
2019-05-07T14:35:04.343Z,3.40
2019-05-07T14:37:13.005Z,1.83
2019-05-07T14:39:17.057Z,2.77
2019-05-07T14:41:22.908Z,2.47
2019-05-07T14:43:28.459Z,2.83
2019-05-07T14:45:32.735Z,3.10
2019-05-07T14:47:37.395Z,3.27
2019-05-07T14:49:41.522Z,1.70
2019-05-07T14:51:47.192Z,1.90
2019-05-07T14:53:51.261Z,3.00
2019-05-07T14:55:55.368Z,2.30
2019-05-07T14:57:59.375Z,1.87
2019-05-07T15:00:05.023Z,3.10
2019-05-07T15:02:09.234Z,2.13
2019-05-07T15:04:13.541Z,2.10
2019-05-07T15:06:17.650Z,2.07
2019-05-07T15:08:22.034Z,2.87
2019-05-07T15:10:26.060Z,2.00
2019-05-07T15:12:30.180Z,2.30
2019-05-07T15:14:34.189Z,3.03
2019-05-07T15:16:38.296Z,3.63
2019-05-07T15:18:44.451Z,2.20
2019-05-07T15:20:48.967Z,2.70
2019-05-07T15:23:15.203Z,2.83
2019-05-07T15:25:19.510Z,3.87
2019-05-07T15:27:23.969Z,2.50
2019-05-07T15:29:28.354Z,2.40
2019-05-07T15:31:36.641Z,2.30
2019-05-07T15:33:41.820Z,2.40
2019-05-07T15:35:46.093Z,3.67
2019-05-07T15:37:51.774Z,2.93
2019-05-07T15:39:55.745Z,2.87
2019-05-07T15:42:02.132Z,3.10
2019-05-07T15:44:06.116Z,2.10
2019-05-07T15:46:12.033Z,2.77
2019-05-07T15:48:15.662Z,3.60
2019-05-07T15:50:19.702Z,2.50
2019-05-07T15:52:43.646Z,2.30
2019-05-07T15:54:47.854Z,2.30
2019-05-07T15:56:53.604Z,3.30
2019-05-07T15:58:57.708Z,2.30
2019-05-07T16:01:02.202Z,2.67
2019-05-07T16:03:12.058Z,2.63
2019-05-07T16:05:16.589Z,2.50
2019-05-07T16:07:22.442Z,3.10
2019-05-07T16:09:27.776Z,2.53
2019-05-07T16:11:32.428Z,2.60
2019-05-07T16:13:38.399Z,2.40
2019-05-07T16:15:42.564Z,3.17
2019-05-07T16:17:52.181Z,3.70
2019-05-07T16:19:56.309Z,3.07
2019-05-07T16:22:03.764Z,3.50
2019-05-07T16:24:07.711Z,3.70
2019-05-07T16:26:12.965Z,4.07
2019-05-07T16:28:17.131Z,3.20
2019-05-07T16:30:22.854Z,3.17
2019-05-07T16:32:26.899Z,2.63
2019-05-07T16:34:32.596Z,3.20
2019-05-07T16:36:36.756Z,3.20
2019-05-07T16:38:41.976Z,2.60
2019-05-07T16:40:46.508Z,3.30
2019-05-07T16:42:52.419Z,2.87
2019-05-07T16:44:56.148Z,3.17
2019-05-07T16:47:00.166Z,2.60
2019-05-07T16:49:04.271Z,3.20
2019-05-07T16:51:08.281Z,2.70
2019-05-07T16:53:20.316Z,2.70
2019-05-07T16:55:18.024Z,2.73
2019-05-07T16:57:23.678Z,2.50
2019-05-07T16:59:27.788Z,3.50
2019-05-07T17:01:32.459Z,3.30
2019-05-07T17:03:38.257Z,3.20
2019-05-07T17:05:42.856Z,3.17
2019-05-07T17:07:54.975Z,3.83
2019-05-07T17:09:58.978Z,3.20
2019-05-07T17:12:04.728Z,4.00
2019-05-07T17:14:08.730Z,3.70
2019-05-07T17:16:12.737Z,4.00
2019-05-07T17:18:16.756Z,4.10
2019-05-07T17:20:21.982Z,4.20
2019-05-07T17:22:26.093Z,4.77
2019-05-07T17:24:30.137Z,5.60
2019-05-07T17:26:34.306Z,5.90
2019-05-07T17:28:38.310Z,5.57
2019-05-07T17:30:42.523Z,6.40
2019-05-07T17:32:46.733Z,6.03
2019-05-07T17:34:52.763Z,6.37
2019-05-07T17:36:56.385Z,6.53
2019-05-07T17:39:02.555Z,6.93
2019-05-07T17:41:13.751Z,6.47
2019-05-07T17:43:12.359Z,6.60
2019-05-07T17:45:16.496Z,6.37
2019-05-07T17:47:21.820Z,6.90
2019-05-07T17:49:26.160Z,6.53
2019-05-07T17:51:43.887Z,7.13
2019-05-07T17:53:57.581Z,7.20
2019-05-07T17:55:53.639Z,7.10
2019-05-07T17:57:57.644Z,7.83
2019-05-07T18:00:02.223Z,8.20
2019-05-07T18:02:08.011Z,7.67
2019-05-07T18:04:12.016Z,7.40
2019-05-07T18:06:16.026Z,7.57
2019-05-07T18:08:21.743Z,7.93
2019-05-07T18:10:25.882Z,7.93
2019-05-07T18:12:31.883Z,7.80
2019-05-07T18:14:35.428Z,6.83
2019-05-07T18:16:41.998Z,7.53
2019-05-07T18:18:46.308Z,8.20
2019-05-07T18:20:50.210Z,6.90
2019-05-07T18:22:54.321Z,7.77
2019-05-07T18:24:58.439Z,7.03
2019-05-07T18:27:03.870Z,8.27
2019-05-07T18:29:07.875Z,7.87
2019-05-07T18:31:12.599Z,7.77
2019-05-07T18:33:19.163Z,5.60
2019-05-07T18:35:23.211Z,7.50
2019-05-07T18:37:27.281Z,4.37
2019-05-07T18:39:32.381Z,6.73
2019-05-07T18:41:36.733Z,5.83
2019-05-07T18:43:42.144Z,6.60
2019-05-07T18:45:46.480Z,8.43
2019-05-07T18:47:51.695Z,9.50
2019-05-07T18:49:56.142Z,8.60
2019-05-07T18:52:00.012Z,9.30
2019-05-07T18:54:04.039Z,9.00
2019-05-07T18:56:08.046Z,9.87
2019-05-07T18:58:13.364Z,10.00
2019-05-07T19:00:22.166Z,9.33
2019-05-07T19:02:26.207Z,8.40
2019-05-07T19:04:30.886Z,7.83
2019-05-07T19:06:36.064Z,8.90
2019-05-07T19:08:42.090Z,9.17
2019-05-07T19:10:45.716Z,8.23
2019-05-07T19:12:49.712Z,9.60
2019-05-07T19:14:53.840Z,8.63
2019-05-07T19:16:57.939Z,8.50
2019-05-07T19:19:02.047Z,9.17
2019-05-07T19:21:06.864Z,8.07
2019-05-07T19:23:11.292Z,8.37
2019-05-07T19:25:15.240Z,8.83
2019-05-07T19:27:19.405Z,8.90
2019-05-07T19:29:23.622Z,9.13
2019-05-07T19:31:27.827Z,8.93
2019-05-07T19:33:35.622Z,8.70
2019-05-07T19:35:42.140Z,9.10
2019-05-07T19:37:48.044Z,11.10
2019-05-07T19:39:57.249Z,11.70
2019-05-07T19:42:02.617Z,11.40
2019-05-07T19:44:09.374Z,10.73
2019-05-07T19:46:16.456Z,10.13
2019-05-07T19:48:23.098Z,9.30
2019-05-07T19:50:27.143Z,9.97
2019-05-07T19:52:36.415Z,10.30
2019-05-07T19:54:42.999Z,9.70
2019-05-07T19:56:48.160Z,10.93
2019-05-07T19:58:52.596Z,9.10
2019-05-07T20:00:57.407Z,9.27
2019-05-07T20:03:03.407Z,8.97
2019-05-07T20:05:07.791Z,10.13
2019-05-07T20:07:12.264Z,9.10
2019-05-07T20:09:18.145Z,9.87
2019-05-07T20:11:31.821Z,9.47
2019-05-07T20:13:35.980Z,9.20
2019-05-07T20:15:42.589Z,9.50
2019-05-07T20:17:46.757Z,8.93
2019-05-07T20:19:52.636Z,10.50
2019-05-07T20:21:56.395Z,9.53
2019-05-07T20:24:01.884Z,10.53
2019-05-07T20:26:06.263Z,9.57
2019-05-07T20:28:12.576Z,9.47
2019-05-07T20:30:16.421Z,7.37
2019-05-07T20:32:24.581Z,8.97
2019-05-07T20:34:29.149Z,10.00
2019-05-07T20:36:33.153Z,9.43
2019-05-07T20:38:37.263Z,8.80
2019-05-07T20:40:42.403Z,10.83
2019-05-07T20:42:48.860Z,10.23
2019-05-07T20:44:53.991Z,9.03
2019-05-07T20:47:01.701Z,9.70
2019-05-07T20:49:05.295Z,9.00
2019-05-07T20:51:09.390Z,9.50
2019-05-07T20:53:13.600Z,10.17
2019-05-07T20:55:31.013Z,9.53
2019-05-07T20:57:35.335Z,9.73
2019-05-07T20:59:39.544Z,10.03
2019-05-07T21:01:43.662Z,9.53
2019-05-07T21:03:47.870Z,9.47
2019-05-07T21:05:54.946Z,9.33
2019-05-07T21:07:59.052Z,10.77
2019-05-07T21:10:03.378Z,9.73
2019-05-07T21:12:07.474Z,10.83
2019-05-07T21:14:12.181Z,10.00
2019-05-07T21:16:16.514Z,10.03
2019-05-07T21:18:22.945Z,10.40
2019-05-07T21:20:26.266Z,10.87
2019-05-07T21:22:31.975Z,10.70
2019-05-07T21:24:35.801Z,11.03
2019-05-07T21:26:42.146Z,9.80
2019-05-07T21:28:45.466Z,10.93
2019-05-07T21:30:51.936Z,10.40
2019-05-07T21:32:55.216Z,10.70
2019-05-07T21:34:59.227Z,10.57
2019-05-07T21:37:03.485Z,10.53
2019-05-07T21:39:08.463Z,11.27
2019-05-07T21:41:12.835Z,10.60
2019-05-07T21:43:17.089Z,10.97
2019-05-07T21:45:23.617Z,10.27
2019-05-07T21:47:26.650Z,10.57
2019-05-07T21:49:32.270Z,11.67
2019-05-07T21:51:36.395Z,11.87
2019-05-07T21:53:44.788Z,11.00
2019-05-07T21:55:59.960Z,12.00
2019-05-07T21:58:02.282Z,11.60
2019-05-07T22:00:16.484Z,12.07
2019-05-07T22:02:27.247Z,12.83
2019-05-07T22:04:31.458Z,12.67
2019-05-07T22:06:35.667Z,12.40
2019-05-07T22:08:39.781Z,13.17
2019-05-07T22:10:44.001Z,14.77
2019-05-07T22:12:48.097Z,13.83
2019-05-07T22:14:52.144Z,12.93
2019-05-07T22:16:56.423Z,12.73
2019-05-07T22:19:02.455Z,12.70
2019-05-07T22:21:06.069Z,13.53
2019-05-07T22:23:10.073Z,13.40
2019-05-07T22:25:14.172Z,12.97
2019-05-07T22:27:18.297Z,11.73
2019-05-07T22:29:22.753Z,10.77
2019-05-07T22:31:34.598Z,13.63
2019-05-07T22:33:59.193Z,13.10
2019-05-07T22:36:01.923Z,12.20
2019-05-07T22:38:07.686Z,12.40
2019-05-07T22:40:12.170Z,13.83
2019-05-07T22:42:16.544Z,13.63
2019-05-07T22:44:23.669Z,12.87
2019-05-07T22:46:25.979Z,13.63
2019-05-07T22:48:32.323Z,14.60
2019-05-07T22:50:35.640Z,13.63
2019-05-07T22:52:39.756Z,12.90
2019-05-07T22:54:43.856Z,14.27
2019-05-07T22:57:04.656Z,13.43
2019-05-07T22:59:08.668Z,13.30
2019-05-07T23:01:14.519Z,13.67
2019-05-07T23:03:18.627Z,14.63
2019-05-07T23:05:23.053Z,13.27
2019-05-07T23:07:27.251Z,13.40
2019-05-07T23:09:31.158Z,13.07
2019-05-07T23:11:35.362Z,14.50
2019-05-07T23:13:39.476Z,13.63
2019-05-07T23:15:43.892Z,13.37
2019-05-07T23:17:47.791Z,13.10
2019-05-07T23:19:53.004Z,14.17
2019-05-07T23:21:57.544Z,13.30
2019-05-07T23:24:01.553Z,13.90
2019-05-07T23:26:05.765Z,12.90
2019-05-07T23:28:09.671Z,13.10
2019-05-07T23:30:15.200Z,13.07
2019-05-07T23:32:19.421Z,13.00
2019-05-07T23:34:23.428Z,12.77
2019-05-07T23:36:27.742Z,12.27
2019-05-07T23:38:32.060Z,11.73
2019-05-07T23:40:46.913Z,13.83
2019-05-07T23:42:52.449Z,13.33
2019-05-07T23:44:56.667Z,15.20
2019-05-07T23:47:02.676Z,13.43
2019-05-07T23:49:06.320Z,14.23
2019-05-07T23:51:12.487Z,14.50
2019-05-07T23:53:16.070Z,13.40
2019-05-07T23:55:20.181Z,14.20
2019-05-07T23:57:24.184Z,13.00
2019-05-07T23:59:28.402Z,13.10
